sensor_id;sensor_type;location;lat;lon;timestamp;temperature;humidity
18733;DHT22;9495;51.210;2.934;2023-01-15T00:02:16;10.30;99.90
18733;DHT22;9495;51.210;2.934;2023-01-15T00:04:44;10.00;99.90
18733;DHT22;9495;51.210;2.934;2023-01-15T00:07:14;10.10;99.90
18733;DHT22;9495;51.210;2.934;2023-01-15T00:09:42;9.90;99.90
18733;DHT22;9495;51.210;2.934;2023-01-15T00:12:11;9.90;99.90
18733;DHT22;9495;51.210;2.934;2023-01-15T00:14:39;9.90;99.90
18733;DHT22;9495;51.210;2.934;2023-01-15T00:17:08;9.80;99.90
18733;DHT22;9495;51.210;2.934;2023-01-15T00:19:36;9.80;99.90
18733;DHT22;9495;51.210;2.934;2023-01-15T00:22:05;9.40;99.90
18733;DHT22;9495;51.210;2.934;2023-01-15T00:24:35;9.60;99.90
18733;DHT22;9495;51.210;2.934;2023-01-15T00:27:20;9.80;99.90
18733;DHT22;9495;51.210;2.934;2023-01-15T00:30:09;9.80;99.90
18733;DHT22;9495;51.210;2.934;2023-01-15T00:32:38;9.80;99.90
18733;DHT22;9495;51.210;2.934;2023-01-15T00:35:11;10.10;99.90
18733;DHT22;9495;51.210;2.934;2023-01-15T00:37:43;9.70;99.90
18733;DHT22;9495;51.210;2.934;2023-01-15T00:40:14;9.70;99.90
18733;DHT22;9495;51.210;2.934;2023-01-15T00:42:43;9.50;99.90
18733;DHT22;9495;51.210;2.934;2023-01-15T00:45:20;9.80;99.90
18733;DHT22;9495;51.210;2.934;2023-01-15T00:47:49;9.60;99.90
18733;DHT22;9495;51.210;2.934;2023-01-15T00:50:17;10.00;99.90
18733;DHT22;9495;51.210;2.934;2023-01-15T00:52:49;9.80;99.90
18733;DHT22;9495;51.210;2.934;2023-01-15T00:55:19;9.80;99.90
18733;DHT22;9495;51.210;2.934;2023-01-15T00:57:49;9.70;99.90
18733;DHT22;9495;51.210;2.934;2023-01-15T01:00:18;10.00;99.90
18733;DHT22;9495;51.210;2.934;2023-01-15T01:02:47;10.00;99.90
18733;DHT22;9495;51.210;2.934;2023-01-15T01:05:15;9.50;99.90
18733;DHT22;9495;51.210;2.934;2023-01-15T01:07:44;9.70;99.90
18733;DHT22;9495;51.210;2.934;2023-01-15T01:10:12;9.80;99.90
18733;DHT22;9495;51.210;2.934;2023-01-15T01:12:42;9.60;99.90
18733;DHT22;9495;51.210;2.934;2023-01-15T01:15:11;9.60;99.90
18733;DHT22;9495;51.210;2.934;2023-01-15T01:17:39;9.90;99.90
18733;DHT22;9495;51.210;2.934;2023-01-15T01:20:09;9.50;99.90
18733;DHT22;9495;51.210;2.934;2023-01-15T01:22:40;9.70;99.90
18733;DHT22;9495;51.210;2.934;2023-01-15T01:25:09;9.80;99.90
18733;DHT22;9495;51.210;2.934;2023-01-15T01:27:37;9.80;99.90
18733;DHT22;9495;51.210;2.934;2023-01-15T01:30:08;9.70;99.90
18733;DHT22;9495;51.210;2.934;2023-01-15T01:32:37;9.90;99.90
18733;DHT22;9495;51.210;2.934;2023-01-15T01:35:06;10.40;99.90
18733;DHT22;9495;51.210;2.934;2023-01-15T01:37:34;9.90;99.90
18733;DHT22;9495;51.210;2.934;2023-01-15T01:40:04;10.00;99.90
18733;DHT22;9495;51.210;2.934;2023-01-15T01:42:32;10.00;99.90
18733;DHT22;9495;51.210;2.934;2023-01-15T01:45:10;10.20;99.90
18733;DHT22;9495;51.210;2.934;2023-01-15T01:47:44;9.90;99.90
18733;DHT22;9495;51.210;2.934;2023-01-15T01:50:13;10.20;99.90
18733;DHT22;9495;51.210;2.934;2023-01-15T01:52:45;10.00;99.90
18733;DHT22;9495;51.210;2.934;2023-01-15T01:55:17;10.10;99.90
18733;DHT22;9495;51.210;2.934;2023-01-15T01:57:47;10.30;99.90
18733;DHT22;9495;51.210;2.934;2023-01-15T02:00:19;10.00;99.90
18733;DHT22;9495;51.210;2.934;2023-01-15T02:02:48;9.70;99.90
18733;DHT22;9495;51.210;2.934;2023-01-15T02:05:25;9.80;99.90
18733;DHT22;9495;51.210;2.934;2023-01-15T02:07:55;9.80;99.90
18733;DHT22;9495;51.210;2.934;2023-01-15T02:10:23;9.70;99.90
18733;DHT22;9495;51.210;2.934;2023-01-15T02:12:57;9.30;99.90
18733;DHT22;9495;51.210;2.934;2023-01-15T02:15:32;9.70;99.90
18733;DHT22;9495;51.210;2.934;2023-01-15T02:18:09;9.60;99.90
18733;DHT22;9495;51.210;2.934;2023-01-15T02:20:43;9.60;99.90
18733;DHT22;9495;51.210;2.934;2023-01-15T02:23:42;9.70;99.90
18733;DHT22;9495;51.210;2.934;2023-01-15T02:26:49;9.40;99.90
18733;DHT22;9495;51.210;2.934;2023-01-15T02:29:21;9.20;99.90
18733;DHT22;9495;51.210;2.934;2023-01-15T02:31:53;9.30;99.90
18733;DHT22;9495;51.210;2.934;2023-01-15T02:34:24;9.20;99.90
18733;DHT22;9495;51.210;2.934;2023-01-15T02:36:57;9.30;99.90
18733;DHT22;9495;51.210;2.934;2023-01-15T02:39:28;9.50;99.90
18733;DHT22;9495;51.210;2.934;2023-01-15T02:42:01;9.30;99.90
18733;DHT22;9495;51.210;2.934;2023-01-15T02:44:31;9.80;99.90
18733;DHT22;9495;51.210;2.934;2023-01-15T02:47:04;9.70;99.90
18733;DHT22;9495;51.210;2.934;2023-01-15T02:49:33;9.50;99.90
18733;DHT22;9495;51.210;2.934;2023-01-15T02:52:05;9.30;99.90
18733;DHT22;9495;51.210;2.934;2023-01-15T02:54:38;9.70;99.90
18733;DHT22;9495;51.210;2.934;2023-01-15T02:57:11;9.20;99.90
18733;DHT22;9495;51.210;2.934;2023-01-15T02:59:46;9.70;99.90
18733;DHT22;9495;51.210;2.934;2023-01-15T03:02:18;9.50;99.90
18733;DHT22;9495;51.210;2.934;2023-01-15T03:04:52;9.60;99.90
18733;DHT22;9495;51.210;2.934;2023-01-15T03:07:25;9.60;99.90
18733;DHT22;9495;51.210;2.934;2023-01-15T03:09:55;9.60;99.90
18733;DHT22;9495;51.210;2.934;2023-01-15T03:12:28;9.50;99.90
18733;DHT22;9495;51.210;2.934;2023-01-15T03:15:02;9.30;99.90
18733;DHT22;9495;51.210;2.934;2023-01-15T03:17:36;9.30;99.90
18733;DHT22;9495;51.210;2.934;2023-01-15T03:20:08;9.50;99.90
18733;DHT22;9495;51.210;2.934;2023-01-15T03:22:43;9.60;99.90
18733;DHT22;9495;51.210;2.934;2023-01-15T03:25:15;9.80;99.90
18733;DHT22;9495;51.210;2.934;2023-01-15T03:27:47;9.90;99.90
18733;DHT22;9495;51.210;2.934;2023-01-15T03:30:17;10.00;99.90
18733;DHT22;9495;51.210;2.934;2023-01-15T03:32:46;9.90;99.90
18733;DHT22;9495;51.210;2.934;2023-01-15T03:35:43;9.70;99.90
18733;DHT22;9495;51.210;2.934;2023-01-15T03:38:13;9.50;99.90
18733;DHT22;9495;51.210;2.934;2023-01-15T03:40:49;9.60;99.90
18733;DHT22;9495;51.210;2.934;2023-01-15T03:43:26;9.70;99.90
18733;DHT22;9495;51.210;2.934;2023-01-15T03:46:18;9.40;99.90
18733;DHT22;9495;51.210;2.934;2023-01-15T03:48:56;9.50;99.90
18733;DHT22;9495;51.210;2.934;2023-01-15T03:51:33;9.50;99.90
18733;DHT22;9495;51.210;2.934;2023-01-15T03:54:06;9.60;99.90
18733;DHT22;9495;51.210;2.934;2023-01-15T03:56:45;9.70;99.90
18733;DHT22;9495;51.210;2.934;2023-01-15T03:59:26;9.50;99.90
18733;DHT22;9495;51.210;2.934;2023-01-15T04:02:01;9.40;99.90
18733;DHT22;9495;51.210;2.934;2023-01-15T04:04:44;9.30;99.90
18733;DHT22;9495;51.210;2.934;2023-01-15T04:07:30;9.30;99.90
18733;DHT22;9495;51.210;2.934;2023-01-15T04:10:01;9.20;99.90
18733;DHT22;9495;51.210;2.934;2023-01-15T04:12:31;9.30;99.90
18733;DHT22;9495;51.210;2.934;2023-01-15T04:15:01;9.40;99.90
18733;DHT22;9495;51.210;2.934;2023-01-15T04:17:30;9.40;99.90
18733;DHT22;9495;51.210;2.934;2023-01-15T04:20:06;9.80;99.90
18733;DHT22;9495;51.210;2.934;2023-01-15T04:22:46;9.80;99.90
18733;DHT22;9495;51.210;2.934;2023-01-15T04:25:15;9.70;99.90
18733;DHT22;9495;51.210;2.934;2023-01-15T04:28:06;9.70;99.90
18733;DHT22;9495;51.210;2.934;2023-01-15T04:30:47;9.40;99.90
18733;DHT22;9495;51.210;2.934;2023-01-15T04:33:29;9.60;99.90
18733;DHT22;9495;51.210;2.934;2023-01-15T04:36:02;9.60;99.90
18733;DHT22;9495;51.210;2.934;2023-01-15T04:38:31;9.40;99.90
18733;DHT22;9495;51.210;2.934;2023-01-15T04:41:06;9.60;99.90
18733;DHT22;9495;51.210;2.934;2023-01-15T04:43:54;9.80;99.90
18733;DHT22;9495;51.210;2.934;2023-01-15T04:46:37;9.30;99.90
18733;DHT22;9495;51.210;2.934;2023-01-15T04:49:13;9.80;99.90
18733;DHT22;9495;51.210;2.934;2023-01-15T04:51:47;9.50;99.90
18733;DHT22;9495;51.210;2.934;2023-01-15T04:54:20;10.50;99.90
18733;DHT22;9495;51.210;2.934;2023-01-15T05:26:05;8.70;99.90
18733;DHT22;9495;51.210;2.934;2023-01-15T05:28:38;8.60;99.90
18733;DHT22;9495;51.210;2.934;2023-01-15T05:31:10;8.80;99.90
18733;DHT22;9495;51.210;2.934;2023-01-15T05:33:39;9.00;99.90
18733;DHT22;9495;51.210;2.934;2023-01-15T05:36:10;8.70;99.90
18733;DHT22;9495;51.210;2.934;2023-01-15T05:38:44;8.40;99.90
18733;DHT22;9495;51.210;2.934;2023-01-15T05:41:15;9.00;99.90
18733;DHT22;9495;51.210;2.934;2023-01-15T05:44:04;9.30;99.90
18733;DHT22;9495;51.210;2.934;2023-01-15T05:46:38;9.10;99.90
18733;DHT22;9495;51.210;2.934;2023-01-15T05:49:09;9.40;99.90
18733;DHT22;9495;51.210;2.934;2023-01-15T05:51:38;9.10;99.90
18733;DHT22;9495;51.210;2.934;2023-01-15T05:54:10;9.20;99.90
18733;DHT22;9495;51.210;2.934;2023-01-15T05:56:40;9.60;99.90
18733;DHT22;9495;51.210;2.934;2023-01-15T05:59:15;9.20;99.90
18733;DHT22;9495;51.210;2.934;2023-01-15T06:01:44;9.40;99.90
18733;DHT22;9495;51.210;2.934;2023-01-15T06:04:13;9.50;99.90
18733;DHT22;9495;51.210;2.934;2023-01-15T06:06:42;10.00;99.90
18733;DHT22;9495;51.210;2.934;2023-01-15T06:09:13;9.40;99.90
18733;DHT22;9495;51.210;2.934;2023-01-15T06:11:42;9.00;99.90
18733;DHT22;9495;51.210;2.934;2023-01-15T06:14:11;9.10;99.90
18733;DHT22;9495;51.210;2.934;2023-01-15T06:16:40;9.40;99.90
18733;DHT22;9495;51.210;2.934;2023-01-15T06:19:10;9.60;99.90
18733;DHT22;9495;51.210;2.934;2023-01-15T06:21:41;9.20;99.90
18733;DHT22;9495;51.210;2.934;2023-01-15T06:24:12;9.10;99.90
18733;DHT22;9495;51.210;2.934;2023-01-15T06:26:46;9.40;99.90
18733;DHT22;9495;51.210;2.934;2023-01-15T06:29:25;9.30;99.90
18733;DHT22;9495;51.210;2.934;2023-01-15T06:31:59;9.30;99.90
18733;DHT22;9495;51.210;2.934;2023-01-15T06:34:34;9.20;99.90
18733;DHT22;9495;51.210;2.934;2023-01-15T06:37:12;9.90;99.90
18733;DHT22;9495;51.210;2.934;2023-01-15T06:39:43;9.60;99.90
18733;DHT22;9495;51.210;2.934;2023-01-15T06:42:23;9.70;99.90
18733;DHT22;9495;51.210;2.934;2023-01-15T06:45:12;9.10;99.90
18733;DHT22;9495;51.210;2.934;2023-01-15T06:48:04;10.10;99.90
18733;DHT22;9495;51.210;2.934;2023-01-15T06:50:37;9.10;99.90
18733;DHT22;9495;51.210;2.934;2023-01-15T06:53:06;9.30;99.90
18733;DHT22;9495;51.210;2.934;2023-01-15T06:55:40;8.90;99.90
18733;DHT22;9495;51.210;2.934;2023-01-15T06:58:10;9.10;99.90
18733;DHT22;9495;51.210;2.934;2023-01-15T07:00:39;9.20;99.90
18733;DHT22;9495;51.210;2.934;2023-01-15T07:03:26;10.10;99.90
18733;DHT22;9495;51.210;2.934;2023-01-15T07:06:07;9.70;99.90
18733;DHT22;9495;51.210;2.934;2023-01-15T07:08:47;10.00;99.90
18733;DHT22;9495;51.210;2.934;2023-01-15T07:11:15;9.60;99.90
18733;DHT22;9495;51.210;2.934;2023-01-15T07:13:45;9.70;99.90
18733;DHT22;9495;51.210;2.934;2023-01-15T07:16:15;9.80;99.90
18733;DHT22;9495;51.210;2.934;2023-01-15T07:18:55;10.00;99.90
18733;DHT22;9495;51.210;2.934;2023-01-15T07:21:23;10.30;99.90
18733;DHT22;9495;51.210;2.934;2023-01-15T07:23:52;10.30;99.90
18733;DHT22;9495;51.210;2.934;2023-01-15T07:26:21;10.30;99.90
18733;DHT22;9495;51.210;2.934;2023-01-15T07:28:50;11.40;99.90
18733;DHT22;9495;51.210;2.934;2023-01-15T07:31:19;10.50;99.90
18733;DHT22;9495;51.210;2.934;2023-01-15T07:33:47;10.80;99.90
18733;DHT22;9495;51.210;2.934;2023-01-15T07:36:16;10.90;99.90
18733;DHT22;9495;51.210;2.934;2023-01-15T07:38:44;10.70;99.90
18733;DHT22;9495;51.210;2.934;2023-01-15T07:41:13;9.90;99.90
18733;DHT22;9495;51.210;2.934;2023-01-15T07:44:00;11.40;99.90
18733;DHT22;9495;51.210;2.934;2023-01-15T07:46:46;11.40;99.90
18733;DHT22;9495;51.210;2.934;2023-01-15T07:49:32;11.40;99.90
18733;DHT22;9495;51.210;2.934;2023-01-15T07:52:12;10.90;99.90
18733;DHT22;9495;51.210;2.934;2023-01-15T07:54:41;12.10;99.90
18733;DHT22;9495;51.210;2.934;2023-01-15T07:57:10;12.10;99.90
18733;DHT22;9495;51.210;2.934;2023-01-15T07:59:40;11.80;99.90
18733;DHT22;9495;51.210;2.934;2023-01-15T08:02:09;12.20;99.90
18733;DHT22;9495;51.210;2.934;2023-01-15T08:04:38;13.40;99.90
18733;DHT22;9495;51.210;2.934;2023-01-15T08:07:06;12.50;99.90
18733;DHT22;9495;51.210;2.934;2023-01-15T08:09:35;12.80;99.90
18733;DHT22;9495;51.210;2.934;2023-01-15T08:12:04;12.10;99.90
18733;DHT22;9495;51.210;2.934;2023-01-15T08:14:52;12.00;99.90
18733;DHT22;9495;51.210;2.934;2023-01-15T08:17:38;12.60;99.90
18733;DHT22;9495;51.210;2.934;2023-01-15T08:20:10;12.80;99.90
18733;DHT22;9495;51.210;2.934;2023-01-15T08:22:39;12.80;99.90
18733;DHT22;9495;51.210;2.934;2023-01-15T08:25:08;12.70;99.90
18733;DHT22;9495;51.210;2.934;2023-01-15T08:27:38;12.60;99.90
18733;DHT22;9495;51.210;2.934;2023-01-15T08:30:10;12.50;99.90
18733;DHT22;9495;51.210;2.934;2023-01-15T08:32:39;14.30;99.90
18733;DHT22;9495;51.210;2.934;2023-01-15T08:35:08;15.10;99.90
18733;DHT22;9495;51.210;2.934;2023-01-15T08:37:37;13.60;99.90
18733;DHT22;9495;51.210;2.934;2023-01-15T08:40:06;12.30;99.90
18733;DHT22;9495;51.210;2.934;2023-01-15T08:42:35;12.70;99.90
18733;DHT22;9495;51.210;2.934;2023-01-15T08:45:03;12.30;99.90
18733;DHT22;9495;51.210;2.934;2023-01-15T08:47:33;12.30;99.90
18733;DHT22;9495;51.210;2.934;2023-01-15T08:50:03;12.50;99.90
18733;DHT22;9495;51.210;2.934;2023-01-15T08:52:40;13.10;99.90
18733;DHT22;9495;51.210;2.934;2023-01-15T08:55:11;12.20;99.90
18733;DHT22;9495;51.210;2.934;2023-01-15T08:57:40;11.80;99.90
18733;DHT22;9495;51.210;2.934;2023-01-15T09:00:11;10.40;99.90
18733;DHT22;9495;51.210;2.934;2023-01-15T09:02:41;10.20;99.90
18733;DHT22;9495;51.210;2.934;2023-01-15T09:05:09;10.00;99.90
18733;DHT22;9495;51.210;2.934;2023-01-15T09:07:38;10.20;99.90
18733;DHT22;9495;51.210;2.934;2023-01-15T09:10:07;10.30;99.90
18733;DHT22;9495;51.210;2.934;2023-01-15T09:12:36;9.90;99.90
18733;DHT22;9495;51.210;2.934;2023-01-15T09:15:12;9.80;99.90
18733;DHT22;9495;51.210;2.934;2023-01-15T09:17:46;10.30;99.90
18733;DHT22;9495;51.210;2.934;2023-01-15T09:20:14;9.80;99.90
18733;DHT22;9495;51.210;2.934;2023-01-15T09:22:43;9.50;99.90
18733;DHT22;9495;51.210;2.934;2023-01-15T09:25:18;9.40;99.90
18733;DHT22;9495;51.210;2.934;2023-01-15T09:27:50;9.80;99.90
18733;DHT22;9495;51.210;2.934;2023-01-15T09:30:33;9.80;99.90
18733;DHT22;9495;51.210;2.934;2023-01-15T09:33:06;9.50;99.90
18733;DHT22;9495;51.210;2.934;2023-01-15T09:35:41;10.00;99.90
18733;DHT22;9495;51.210;2.934;2023-01-15T09:38:13;10.00;99.90
18733;DHT22;9495;51.210;2.934;2023-01-15T09:40:47;9.70;99.90
18733;DHT22;9495;51.210;2.934;2023-01-15T09:43:25;9.40;99.90
18733;DHT22;9495;51.210;2.934;2023-01-15T09:45:59;9.50;99.90
18733;DHT22;9495;51.210;2.934;2023-01-15T09:48:48;9.60;99.90
18733;DHT22;9495;51.210;2.934;2023-01-15T09:51:26;9.50;99.90
18733;DHT22;9495;51.210;2.934;2023-01-15T09:54:16;9.30;99.90
18733;DHT22;9495;51.210;2.934;2023-01-15T09:56:47;9.30;99.90
18733;DHT22;9495;51.210;2.934;2023-01-15T09:59:20;9.10;99.90
18733;DHT22;9495;51.210;2.934;2023-01-15T10:01:50;8.90;99.90
18733;DHT22;9495;51.210;2.934;2023-01-15T10:04:31;8.90;99.90
18733;DHT22;9495;51.210;2.934;2023-01-15T10:07:07;8.90;99.90
18733;DHT22;9495;51.210;2.934;2023-01-15T10:09:40;8.80;99.90
18733;DHT22;9495;51.210;2.934;2023-01-15T10:12:15;8.90;99.90
18733;DHT22;9495;51.210;2.934;2023-01-15T10:15:30;9.30;99.90
18733;DHT22;9495;51.210;2.934;2023-01-15T10:18:06;9.10;99.90
18733;DHT22;9495;51.210;2.934;2023-01-15T10:20:49;9.00;99.90
18733;DHT22;9495;51.210;2.934;2023-01-15T10:23:35;8.70;99.90
18733;DHT22;9495;51.210;2.934;2023-01-15T10:26:23;8.80;99.90
18733;DHT22;9495;51.210;2.934;2023-01-15T10:28:59;8.40;99.90
18733;DHT22;9495;51.210;2.934;2023-01-15T10:31:53;8.60;99.90
18733;DHT22;9495;51.210;2.934;2023-01-15T10:34:54;8.50;99.90
18733;DHT22;9495;51.210;2.934;2023-01-15T10:37:30;8.60;99.90
18733;DHT22;9495;51.210;2.934;2023-01-15T10:40:17;8.70;99.90
18733;DHT22;9495;51.210;2.934;2023-01-15T10:42:56;8.80;99.90
18733;DHT22;9495;51.210;2.934;2023-01-15T10:45:31;8.90;99.90
18733;DHT22;9495;51.210;2.934;2023-01-15T10:48:04;8.80;99.90
18733;DHT22;9495;51.210;2.934;2023-01-15T10:50:34;8.70;99.90
18733;DHT22;9495;51.210;2.934;2023-01-15T10:53:10;8.80;99.90
18733;DHT22;9495;51.210;2.934;2023-01-15T10:55:43;9.30;99.90
18733;DHT22;9495;51.210;2.934;2023-01-15T10:58:16;9.40;99.90
18733;DHT22;9495;51.210;2.934;2023-01-15T11:00:57;9.30;99.90
18733;DHT22;9495;51.210;2.934;2023-01-15T11:03:36;9.30;99.90
18733;DHT22;9495;51.210;2.934;2023-01-15T11:06:22;9.10;99.90
18733;DHT22;9495;51.210;2.934;2023-01-15T11:08:56;9.10;99.90
18733;DHT22;9495;51.210;2.934;2023-01-15T11:11:49;8.90;99.90
18733;DHT22;9495;51.210;2.934;2023-01-15T11:14:37;8.90;99.90
18733;DHT22;9495;51.210;2.934;2023-01-15T11:17:29;9.50;99.90
18733;DHT22;9495;51.210;2.934;2023-01-15T11:20:42;9.60;99.90
18733;DHT22;9495;51.210;2.934;2023-01-15T11:23:21;10.00;99.90
18733;DHT22;9495;51.210;2.934;2023-01-15T11:26:02;9.70;99.90
18733;DHT22;9495;51.210;2.934;2023-01-15T11:28:54;9.80;99.90
18733;DHT22;9495;51.210;2.934;2023-01-15T11:31:37;10.00;99.90
18733;DHT22;9495;51.210;2.934;2023-01-15T11:34:23;10.00;99.90
18733;DHT22;9495;51.210;2.934;2023-01-15T11:37:29;10.30;99.90
18733;DHT22;9495;51.210;2.934;2023-01-15T11:40:18;10.00;99.90
18733;DHT22;9495;51.210;2.934;2023-01-15T11:43:00;10.10;99.90
18733;DHT22;9495;51.210;2.934;2023-01-15T11:45:49;9.90;99.90
18733;DHT22;9495;51.210;2.934;2023-01-15T11:48:45;10.10;99.90
18733;DHT22;9495;51.210;2.934;2023-01-15T11:51:45;9.90;99.90
18733;DHT22;9495;51.210;2.934;2023-01-15T11:54:36;9.80;99.90
18733;DHT22;9495;51.210;2.934;2023-01-15T11:57:22;9.60;99.90
18733;DHT22;9495;51.210;2.934;2023-01-15T11:59:59;9.60;99.90
18733;DHT22;9495;51.210;2.934;2023-01-15T12:02:32;9.60;99.90
18733;DHT22;9495;51.210;2.934;2023-01-15T12:05:05;9.70;99.90
18733;DHT22;9495;51.210;2.934;2023-01-15T12:07:48;9.80;99.90
18733;DHT22;9495;51.210;2.934;2023-01-15T12:10:20;9.80;99.90
18733;DHT22;9495;51.210;2.934;2023-01-15T12:13:31;10.40;99.90
18733;DHT22;9495;51.210;2.934;2023-01-15T12:16:14;10.50;99.90
18733;DHT22;9495;51.210;2.934;2023-01-15T12:19:05;10.40;99.90
18733;DHT22;9495;51.210;2.934;2023-01-15T12:22:00;13.20;99.90
18733;DHT22;9495;51.210;2.934;2023-01-15T12:24:51;13.40;99.90
18733;DHT22;9495;51.210;2.934;2023-01-15T12:27:45;14.50;99.90
18733;DHT22;9495;51.210;2.934;2023-01-15T12:30:31;15.30;99.90
18733;DHT22;9495;51.210;2.934;2023-01-15T12:33:23;15.10;99.90
18733;DHT22;9495;51.210;2.934;2023-01-15T12:35:57;14.60;99.90
18733;DHT22;9495;51.210;2.934;2023-01-15T12:38:41;13.50;99.90
18733;DHT22;9495;51.210;2.934;2023-01-15T12:41:13;13.50;99.90
18733;DHT22;9495;51.210;2.934;2023-01-15T12:43:46;13.90;99.90
18733;DHT22;9495;51.210;2.934;2023-01-15T12:46:44;14.30;99.90
18733;DHT22;9495;51.210;2.934;2023-01-15T12:49:31;15.00;99.90
18733;DHT22;9495;51.210;2.934;2023-01-15T12:52:06;15.40;99.90
18733;DHT22;9495;51.210;2.934;2023-01-15T12:54:40;15.80;99.90
18733;DHT22;9495;51.210;2.934;2023-01-15T12:57:30;14.20;99.90
18733;DHT22;9495;51.210;2.934;2023-01-15T13:00:12;13.90;99.90
18733;DHT22;9495;51.210;2.934;2023-01-15T13:02:56;12.90;99.90
18733;DHT22;9495;51.210;2.934;2023-01-15T13:05:38;13.50;99.90
18733;DHT22;9495;51.210;2.934;2023-01-15T13:08:16;13.30;99.90
18733;DHT22;9495;51.210;2.934;2023-01-15T13:10:48;13.20;99.90
18733;DHT22;9495;51.210;2.934;2023-01-15T13:13:19;14.00;99.90
18733;DHT22;9495;51.210;2.934;2023-01-15T13:16:01;14.40;99.90
18733;DHT22;9495;51.210;2.934;2023-01-15T13:18:49;14.10;99.90
18733;DHT22;9495;51.210;2.934;2023-01-15T13:21:27;14.20;99.90
18733;DHT22;9495;51.210;2.934;2023-01-15T13:24:49;14.50;99.90
18733;DHT22;9495;51.210;2.934;2023-01-15T13:27:43;14.00;99.90
18733;DHT22;9495;51.210;2.934;2023-01-15T13:30:28;13.50;99.90
18733;DHT22;9495;51.210;2.934;2023-01-15T13:33:18;13.90;99.90
18733;DHT22;9495;51.210;2.934;2023-01-15T13:36:04;14.20;99.90
18733;DHT22;9495;51.210;2.934;2023-01-15T13:38:40;14.30;99.90
18733;DHT22;9495;51.210;2.934;2023-01-15T13:41:09;15.10;99.90
18733;DHT22;9495;51.210;2.934;2023-01-15T13:43:42;15.00;99.90
18733;DHT22;9495;51.210;2.934;2023-01-15T13:46:18;15.50;99.90
18733;DHT22;9495;51.210;2.934;2023-01-15T13:48:58;14.90;99.90
18733;DHT22;9495;51.210;2.934;2023-01-15T13:51:47;14.80;99.90
18733;DHT22;9495;51.210;2.934;2023-01-15T13:54:25;15.00;99.90
18733;DHT22;9495;51.210;2.934;2023-01-15T13:57:22;15.00;99.90
18733;DHT22;9495;51.210;2.934;2023-01-15T13:59:59;14.50;99.90
18733;DHT22;9495;51.210;2.934;2023-01-15T14:06:06;15.00;99.90
18733;DHT22;9495;51.210;2.934;2023-01-15T14:08:41;13.80;99.90
18733;DHT22;9495;51.210;2.934;2023-01-15T14:11:56;13.70;99.90
18733;DHT22;9495;51.210;2.934;2023-01-15T14:15:02;14.30;99.90
18733;DHT22;9495;51.210;2.934;2023-01-15T14:18:15;14.30;99.90
18733;DHT22;9495;51.210;2.934;2023-01-15T14:21:17;14.40;99.90
18733;DHT22;9495;51.210;2.934;2023-01-15T14:24:07;14.90;99.90
18733;DHT22;9495;51.210;2.934;2023-01-15T14:26:53;14.60;99.90
18733;DHT22;9495;51.210;2.934;2023-01-15T14:30:03;15.00;99.90
18733;DHT22;9495;51.210;2.934;2023-01-15T14:32:47;15.30;99.90
18733;DHT22;9495;51.210;2.934;2023-01-15T14:35:20;14.60;99.90
18733;DHT22;9495;51.210;2.934;2023-01-15T14:37:52;14.50;99.90
18733;DHT22;9495;51.210;2.934;2023-01-15T14:40:23;14.70;99.90
18733;DHT22;9495;51.210;2.934;2023-01-15T14:42:56;15.20;99.90
18733;DHT22;9495;51.210;2.934;2023-01-15T14:45:32;14.70;99.90
18733;DHT22;9495;51.210;2.934;2023-01-15T14:48:03;14.60;99.90
18733;DHT22;9495;51.210;2.934;2023-01-15T14:50:34;14.10;99.90
18733;DHT22;9495;51.210;2.934;2023-01-15T14:53:18;13.80;99.90
18733;DHT22;9495;51.210;2.934;2023-01-15T14:55:54;12.80;99.90
18733;DHT22;9495;51.210;2.934;2023-01-15T14:58:33;14.00;99.90
18733;DHT22;9495;51.210;2.934;2023-01-15T15:01:12;13.40;99.90
18733;DHT22;9495;51.210;2.934;2023-01-15T15:03:49;14.50;99.90
18733;DHT22;9495;51.210;2.934;2023-01-15T15:06:19;13.60;99.90
18733;DHT22;9495;51.210;2.934;2023-01-15T15:08:49;14.00;99.90
18733;DHT22;9495;51.210;2.934;2023-01-15T15:11:24;14.40;99.90
18733;DHT22;9495;51.210;2.934;2023-01-15T15:14:15;14.60;99.90
18733;DHT22;9495;51.210;2.934;2023-01-15T15:16:50;14.10;99.90
18733;DHT22;9495;51.210;2.934;2023-01-15T15:19:26;13.80;99.90
18733;DHT22;9495;51.210;2.934;2023-01-15T15:21:57;14.00;99.90
18733;DHT22;9495;51.210;2.934;2023-01-15T15:24:30;13.20;99.90
18733;DHT22;9495;51.210;2.934;2023-01-15T15:27:13;12.80;99.90
18733;DHT22;9495;51.210;2.934;2023-01-15T15:29:44;13.00;99.90
18733;DHT22;9495;51.210;2.934;2023-01-15T15:32:14;13.70;99.90
18733;DHT22;9495;51.210;2.934;2023-01-15T15:34:45;13.20;99.90
18733;DHT22;9495;51.210;2.934;2023-01-15T15:37:18;13.10;99.90
18733;DHT22;9495;51.210;2.934;2023-01-15T15:39:51;12.80;99.90
18733;DHT22;9495;51.210;2.934;2023-01-15T15:42:22;13.30;99.90
18733;DHT22;9495;51.210;2.934;2023-01-15T15:45:17;13.40;99.90
18733;DHT22;9495;51.210;2.934;2023-01-15T15:48:12;13.70;99.90
18733;DHT22;9495;51.210;2.934;2023-01-15T15:50:58;14.30;99.90
18733;DHT22;9495;51.210;2.934;2023-01-15T15:53:27;14.10;99.90
18733;DHT22;9495;51.210;2.934;2023-01-15T15:55:57;13.80;99.90
18733;DHT22;9495;51.210;2.934;2023-01-15T15:58:30;14.10;99.90
18733;DHT22;9495;51.210;2.934;2023-01-15T16:01:01;13.60;99.90
18733;DHT22;9495;51.210;2.934;2023-01-15T16:03:31;14.40;99.90
18733;DHT22;9495;51.210;2.934;2023-01-15T16:06:02;14.20;99.90
18733;DHT22;9495;51.210;2.934;2023-01-15T16:08:31;14.50;99.90
18733;DHT22;9495;51.210;2.934;2023-01-15T16:11:03;13.40;99.90
18733;DHT22;9495;51.210;2.934;2023-01-15T16:13:34;12.90;99.90
18733;DHT22;9495;51.210;2.934;2023-01-15T16:16:05;12.30;99.90
18733;DHT22;9495;51.210;2.934;2023-01-15T16:18:37;12.60;99.90
18733;DHT22;9495;51.210;2.934;2023-01-15T16:21:07;11.80;99.90
18733;DHT22;9495;51.210;2.934;2023-01-15T16:23:36;11.60;99.90
18733;DHT22;9495;51.210;2.934;2023-01-15T16:26:10;10.80;99.90
18733;DHT22;9495;51.210;2.934;2023-01-15T16:28:43;10.90;99.90
18733;DHT22;9495;51.210;2.934;2023-01-15T16:31:18;11.90;99.90
18733;DHT22;9495;51.210;2.934;2023-01-15T16:33:53;11.40;99.90
18733;DHT22;9495;51.210;2.934;2023-01-15T16:36:22;12.60;99.90
18733;DHT22;9495;51.210;2.934;2023-01-15T16:38:51;12.70;99.90
18733;DHT22;9495;51.210;2.934;2023-01-15T16:41:24;12.70;99.90
18733;DHT22;9495;51.210;2.934;2023-01-15T16:43:55;12.90;99.90
18733;DHT22;9495;51.210;2.934;2023-01-15T16:46:27;12.90;99.90
18733;DHT22;9495;51.210;2.934;2023-01-15T16:49:18;12.10;99.90
18733;DHT22;9495;51.210;2.934;2023-01-15T16:51:47;12.00;99.90
18733;DHT22;9495;51.210;2.934;2023-01-15T16:54:44;12.40;99.90
18733;DHT22;9495;51.210;2.934;2023-01-15T16:57:27;11.70;99.90
18733;DHT22;9495;51.210;2.934;2023-01-15T17:00:00;11.20;99.90
18733;DHT22;9495;51.210;2.934;2023-01-15T17:02:40;11.40;99.90
18733;DHT22;9495;51.210;2.934;2023-01-15T17:05:14;11.00;99.90
18733;DHT22;9495;51.210;2.934;2023-01-15T17:07:46;11.20;99.90
18733;DHT22;9495;51.210;2.934;2023-01-15T17:10:26;12.80;99.90
18733;DHT22;9495;51.210;2.934;2023-01-15T17:12:57;11.30;99.90
18733;DHT22;9495;51.210;2.934;2023-01-15T17:15:43;10.90;99.90
18733;DHT22;9495;51.210;2.934;2023-01-15T17:18:24;11.60;99.90
18733;DHT22;9495;51.210;2.934;2023-01-15T17:20:53;13.50;99.90
18733;DHT22;9495;51.210;2.934;2023-01-15T17:23:26;12.60;99.90
18733;DHT22;9495;51.210;2.934;2023-01-15T17:25:55;12.60;99.90
18733;DHT22;9495;51.210;2.934;2023-01-15T17:28:24;12.30;99.90